Time;durP1;ratioP1;P1;durP2;ratioP2;P2;SDS_P1;SDS_P2;PMS_P1;PMS_P2;Temp;Humidity;BMP_temperature;BMP_pressure;BME280_temperature;BME280_humidity;BME280_pressure;Samples;Min_cycle;Max_cycle;Signal;HPM_P1;HPM_P2
2021/12/02 00:01:34;;;;;;;29.58;24.27;;;;;;;;;;5051588;28;20065;-58
2021/12/02 00:04:01;;;;;;;30.27;24.60;;;;;;;;;;5051074;28;20037;-58
2021/12/02 00:06:28;;;;;;;26.92;23.42;;;;;;;;;;5051553;28;20107;-58
2021/12/02 00:08:55;;;;;;;28.05;23.35;;;;;;;;;;5051465;28;20045;-58
2021/12/02 00:11:22;;;;;;;28.10;21.40;;;;;;;;;;5052033;28;20045;-58
2021/12/02 00:16:23;;;;;;;27.98;23.17;;;;;;;;;;5054907;28;20048;-58
2021/12/02 00:21:22;;;;;;;23.83;20.02;;;;;;;;;;5054933;28;20037;-56
2021/12/02 00:24:05;;;;;;;28.48;21.20;;;;;;;;;;5055217;28;20045;-58
2021/12/02 00:26:35;;;;;;;24.83;21.33;;;;;;;;;;5055293;28;20464;-57
2021/12/02 00:29:04;;;;;;;22.88;19.75;;;;;;;;;;5055224;28;20053;-56
2021/12/02 00:31:35;;;;;;;25.88;20.40;;;;;;;;;;5054812;28;20041;-53
2021/12/02 00:34:05;;;;;;;24.08;19.85;;;;;;;;;;5055240;28;20171;-57
2021/12/02 00:36:33;;;;;;;22.30;18.50;;;;;;;;;;5055075;28;20099;-57
2021/12/02 00:39:15;;;;;;;26.10;20.35;;;;;;;;;;5055023;28;20041;-56
2021/12/02 00:41:42;;;;;;;21.10;18.90;;;;;;;;;;5055028;28;20040;-58
2021/12/02 00:44:10;;;;;;;23.98;20.55;;;;;;;;;;5055162;28;20075;-58
2021/12/02 00:46:37;;;;;;;24.83;19.73;;;;;;;;;;5054981;28;20083;-58
2021/12/02 00:49:10;;;;;;;22.20;19.70;;;;;;;;;;5054810;28;20052;-58
2021/12/02 00:51:37;;;;;;;21.95;19.63;;;;;;;;;;5054858;28;20442;-58
2021/12/02 00:54:07;;;;;;;24.83;20.15;;;;;;;;;;5054611;28;20049;-58
2021/12/02 00:56:35;;;;;;;28.80;19.50;;;;;;;;;;5055256;28;20049;-58
2021/12/02 00:59:03;;;;;;;20.98;18.63;;;;;;;;;;5054660;28;20033;-58
2021/12/02 01:01:35;;;;;;;19.27;16.83;;;;;;;;;;5055078;28;20060;-58
2021/12/02 01:04:06;;;;;;;21.63;18.45;;;;;;;;;;5054713;28;20045;-58
2021/12/02 01:06:34;;;;;;;21.58;17.02;;;;;;;;;;5054741;28;20048;-58
2021/12/02 01:09:03;;;;;;;22.85;18.05;;;;;;;;;;5054427;28;20049;-58
2021/12/02 01:11:30;;;;;;;23.40;19.15;;;;;;;;;;5054909;28;20107;-58
2021/12/02 01:13:57;;;;;;;21.05;18.83;;;;;;;;;;5054783;28;20483;-57
2021/12/02 01:16:24;;;;;;;24.05;20.45;;;;;;;;;;5054423;28;20044;-58
2021/12/02 01:18:52;;;;;;;21.20;19.00;;;;;;;;;;5054539;28;20048;-58
2021/12/02 01:21:21;;;;;;;25.35;19.88;;;;;;;;;;5054245;28;20040;-58
2021/12/02 01:23:50;;;;;;;20.73;17.30;;;;;;;;;;5053597;28;20095;-58
2021/12/02 01:26:18;;;;;;;21.35;18.75;;;;;;;;;;5054201;28;20479;-57
2021/12/02 01:28:47;;;;;;;22.08;18.85;;;;;;;;;;5054734;28;20506;-57
2021/12/02 01:31:14;;;;;;;19.52;17.42;;;;;;;;;;5036540;28;20073;-58
2021/12/02 01:33:43;;;;;;;23.80;19.52;;;;;;;;;;5054487;28;20068;-58
2021/12/02 01:36:11;;;;;;;21.95;18.63;;;;;;;;;;5054292;28;20056;-57
2021/12/02 01:38:38;;;;;;;22.52;19.42;;;;;;;;;;5054314;28;20047;-58
2021/12/02 01:41:05;;;;;;;24.85;19.80;;;;;;;;;;5054109;28;20479;-58
2021/12/02 01:43:54;;;;;;;21.88;18.40;;;;;;;;;;5053955;28;20486;-57
2021/12/02 01:46:24;;;;;;;22.33;18.73;;;;;;;;;;5053956;28;20045;-58
2021/12/02 01:49:02;;;;;;;19.80;17.67;;;;;;;;;;5053795;28;20045;-58
2021/12/02 01:51:31;;;;;;;28.05;18.40;;;;;;;;;;5054223;28;20128;-58
2021/12/02 01:54:12;;;;;;;20.13;17.25;;;;;;;;;;5053986;28;20041;-54
2021/12/02 01:56:48;;;;;;;19.95;17.85;;;;;;;;;;5054210;28;20049;-58
2021/12/02 01:59:20;;;;;;;19.15;16.98;;;;;;;;;;5053715;28;20045;-58
2021/12/02 02:01:51;;;;;;;21.77;17.53;;;;;;;;;;5054240;28;20079;-58
2021/12/02 02:04:20;;;;;;;22.50;19.60;;;;;;;;;;5053508;28;20484;-58
2021/12/02 02:06:59;;;;;;;28.58;17.92;;;;;;;;;;5053738;28;20491;-58
2021/12/02 02:09:28;;;;;;;21.77;18.67;;;;;;;;;;5053274;28;20048;-58
2021/12/02 02:11:56;;;;;;;19.58;17.17;;;;;;;;;;5053798;28;20048;-58
2021/12/02 02:14:27;;;;;;;21.48;17.42;;;;;;;;;;5053476;28;20391;-58
2021/12/02 02:16:54;;;;;;;19.73;17.63;;;;;;;;;;5053747;28;20441;-58
2021/12/02 02:19:22;;;;;;;21.48;19.15;;;;;;;;;;5053302;28;20056;-58
2021/12/02 02:21:49;;;;;;;26.42;18.42;;;;;;;;;;5053176;28;20056;-58
2021/12/02 02:24:17;;;;;;;21.38;18.13;;;;;;;;;;5053640;28;20048;-58
2021/12/02 02:26:44;;;;;;;16.45;14.73;;;;;;;;;;5053560;28;20049;-58
2021/12/02 02:29:13;;;;;;;22.35;18.00;;;;;;;;;;5053091;28;20051;-58
2021/12/02 02:31:42;;;;;;;26.42;18.13;;;;;;;;;;5053303;28;20041;-58
2021/12/02 02:34:11;;;;;;;24.30;19.77;;;;;;;;;;5053297;28;20119;-58
2021/12/02 02:36:48;;;;;;;20.52;16.88;;;;;;;;;;5052983;28;20200;-58
2021/12/02 02:39:15;;;;;;;20.48;16.27;;;;;;;;;;5033575;28;20052;-58
2021/12/02 02:41:43;;;;;;;21.13;17.60;;;;;;;;;;5052738;28;20059;-58
2021/12/02 02:44:10;;;;;;;24.25;20.15;;;;;;;;;;5053140;28;20500;-58
2021/12/02 02:46:38;;;;;;;20.48;18.45;;;;;;;;;;5052830;28;20084;-58
2021/12/02 02:49:08;;;;;;;19.30;15.90;;;;;;;;;;5053311;28;20119;-58
2021/12/02 02:51:36;;;;;;;22.08;19.38;;;;;;;;;;5052643;28;20588;-58
2021/12/02 02:54:05;;;;;;;25.40;19.42;;;;;;;;;;5053325;28;20055;-57
2021/12/02 02:56:36;;;;;;;21.33;19.05;;;;;;;;;;5053072;28;20094;-58
2021/12/02 03:07:05;;;;;;;25.38;19.60;;;;;;;;;;5053079;28;20045;-58
2021/12/02 03:17:30;;;;;;;26.63;22.00;;;;;;;;;;5052688;28;20052;-58
2021/12/02 03:19:58;;;;;;;22.00;19.52;;;;;;;;;;5052246;28;20503;-56
2021/12/02 03:22:25;;;;;;;22.67;20.23;;;;;;;;;;5052419;28;20041;-58
2021/12/02 03:24:53;;;;;;;25.50;21.30;;;;;;;;;;5052195;28;20103;-58
2021/12/02 03:27:20;;;;;;;23.13;20.50;;;;;;;;;;5052422;28;20036;-58
2021/12/02 03:29:46;;;;;;;28.13;22.67;;;;;;;;;;5052433;28;20047;-58
2021/12/02 03:32:13;;;;;;;23.48;19.98;;;;;;;;;;5052372;28;20495;-58
2021/12/02 03:34:41;;;;;;;24.95;20.52;;;;;;;;;;5052251;28;20510;-58
2021/12/02 03:37:09;;;;;;;24.27;20.50;;;;;;;;;;5052259;28;20041;-57
2021/12/02 03:39:36;;;;;;;24.75;22.15;;;;;;;;;;5052527;28;20047;-58
2021/12/02 03:42:04;;;;;;;25.77;23.05;;;;;;;;;;5052378;28;20431;-57
2021/12/02 03:44:31;;;;;;;24.50;20.05;;;;;;;;;;5052244;28;20404;-58
2021/12/02 03:46:58;;;;;;;21.27;18.52;;;;;;;;;;5053760;28;20045;-54
2021/12/02 03:49:25;;;;;;;19.73;16.55;;;;;;;;;;5056518;28;20490;-58
2021/12/02 03:51:52;;;;;;;18.42;16.35;;;;;;;;;;5055876;28;20041;-57
2021/12/02 03:54:19;;;;;;;16.35;14.75;;;;;;;;;;5056458;28;20039;-58
2021/12/02 03:56:46;;;;;;;16.25;14.57;;;;;;;;;;5055742;28;20102;-57
2021/12/02 03:59:14;;;;;;;15.13;13.15;;;;;;;;;;5056306;28;20045;-58
2021/12/02 04:01:42;;;;;;;13.80;12.50;;;;;;;;;;5055595;28;20037;-58
2021/12/02 04:04:09;;;;;;;13.40;12.15;;;;;;;;;;5055611;28;20522;-58
2021/12/02 04:06:36;;;;;;;12.57;11.48;;;;;;;;;;5055700;28;20041;-58
2021/12/02 04:14:30;;;;;;;12.65;11.45;;;;;;;;;;5055711;28;20045;-58
2021/12/02 04:17:02;;;;;;;12.07;10.93;;;;;;;;;;5055778;28;20514;-56
2021/12/02 04:19:29;;;;;;;11.07;9.98;;;;;;;;;;5055351;28;20060;-57
2021/12/02 04:21:58;;;;;;;11.27;10.18;;;;;;;;;;5055904;28;20041;-56
2021/12/02 04:24:25;;;;;;;10.30;9.30;;;;;;;;;;5055567;28;20124;-57
2021/12/02 04:26:53;;;;;;;9.48;8.68;;;;;;;;;;5055684;28;20049;-56
2021/12/02 04:29:20;;;;;;;11.95;10.75;;;;;;;;;;5055313;28;20453;-55
2021/12/02 04:31:47;;;;;;;10.93;9.93;;;;;;;;;;5055599;28;20048;-56
2021/12/02 04:34:15;;;;;;;11.27;10.18;;;;;;;;;;5055297;28;20120;-53
2021/12/02 04:36:43;;;;;;;10.98;9.98;;;;;;;;;;5055737;28;20072;-58
2021/12/02 04:39:10;;;;;;;11.45;10.25;;;;;;;;;;5055488;28;20515;-58
2021/12/02 04:41:37;;;;;;;11.55;10.55;;;;;;;;;;5055395;28;20045;-57
2021/12/02 04:44:04;;;;;;;11.48;10.48;;;;;;;;;;5052478;28;20495;-57
2021/12/02 04:46:33;;;;;;;11.48;10.05;;;;;;;;;;5048074;28;20518;-60
2021/12/02 04:49:00;;;;;;;11.65;10.55;;;;;;;;;;5054519;28;20112;-57
2021/12/02 04:51:28;;;;;;;12.00;10.80;;;;;;;;;;5054899;28;20450;-54
2021/12/02 04:53:54;;;;;;;12.20;10.90;;;;;;;;;;5055284;28;20454;-51
2021/12/02 04:56:21;;;;;;;11.48;10.40;;;;;;;;;;5054879;28;20071;-51
2021/12/02 04:58:48;;;;;;;11.85;10.75;;;;;;;;;;5053774;28;20044;-52
2021/12/02 05:01:15;;;;;;;11.02;10.02;;;;;;;;;;5054301;28;20045;-51
2021/12/02 05:03:42;;;;;;;11.82;10.73;;;;;;;;;;5054926;28;20033;-50
2021/12/02 05:06:13;;;;;;;10.63;9.65;;;;;;;;;;5054617;28;20410;-57
2021/12/02 05:08:40;;;;;;;10.88;9.77;;;;;;;;;;5054568;28;20411;-52
2021/12/02 05:11:07;;;;;;;11.95;9.32;;;;;;;;;;5054530;28;20037;-52
2021/12/02 05:13:34;;;;;;;11.43;10.23;;;;;;;;;;5054250;28;20052;-53
2021/12/02 05:16:01;;;;;;;10.98;9.93;;;;;;;;;;5054734;28;20045;-55
2021/12/02 05:18:28;;;;;;;12.43;10.50;;;;;;;;;;5054751;28;20052;-52
2021/12/02 05:20:57;;;;;;;12.65;11.35;;;;;;;;;;5054427;28;20132;-59
2021/12/02 05:23:24;;;;;;;12.65;11.38;;;;;;;;;;5053996;28;20037;-55
2021/12/02 05:25:50;;;;;;;13.38;11.90;;;;;;;;;;5054262;28;20037;-56
2021/12/02 05:28:18;;;;;;;11.68;10.40;;;;;;;;;;5054151;28;20049;-54
2021/12/02 05:30:46;;;;;;;12.90;11.60;;;;;;;;;;5054308;28;20049;-56
2021/12/02 05:33:14;;;;;;;13.60;12.23;;;;;;;;;;5054308;28;20515;-56
2021/12/02 05:35:42;;;;;;;14.63;12.82;;;;;;;;;;5039916;28;20045;-59
2021/12/02 05:38:10;;;;;;;16.70;12.90;;;;;;;;;;5054401;28;20056;-57
2021/12/02 05:40:37;;;;;;;14.20;12.90;;;;;;;;;;5053998;28;20045;-59
2021/12/02 05:43:04;;;;;;;13.13;11.73;;;;;;;;;;5054355;28;20053;-56
2021/12/02 05:45:31;;;;;;;16.70;15.02;;;;;;;;;;5053831;28;20511;-56
2021/12/02 05:47:58;;;;;;;15.65;14.02;;;;;;;;;;5053891;28;20442;-56
2021/12/02 05:50:25;;;;;;;17.00;15.20;;;;;;;;;;5053714;28;20041;-57
2021/12/02 05:52:52;;;;;;;15.65;14.05;;;;;;;;;;5053842;28;20048;-58
2021/12/02 05:55:19;;;;;;;17.38;15.60;;;;;;;;;;5053749;28;20037;-57
2021/12/02 05:57:46;;;;;;;15.07;13.48;;;;;;;;;;5053882;28;20492;-58
2021/12/02 06:00:15;;;;;;;13.82;12.52;;;;;;;;;;5052566;28;20491;-59
2021/12/02 06:02:42;;;;;;;15.52;12.85;;;;;;;;;;5048157;28;20074;-59
2021/12/02 06:05:09;;;;;;;15.05;13.60;;;;;;;;;;5051022;28;20055;-58
2021/12/02 06:07:37;;;;;;;14.23;12.82;;;;;;;;;;5046796;28;20590;-60
2021/12/02 06:10:05;;;;;;;13.23;11.82;;;;;;;;;;5048748;28;20049;-59
2021/12/02 06:12:32;;;;;;;12.82;11.52;;;;;;;;;;5048968;28;20041;-58
2021/12/02 06:14:59;;;;;;;12.57;11.38;;;;;;;;;;5046824;28;20041;-57
2021/12/02 06:17:26;;;;;;;11.57;10.35;;;;;;;;;;5043630;28;20049;-54
2021/12/02 06:19:53;;;;;;;11.70;10.55;;;;;;;;;;5044150;28;20049;-55
2021/12/02 06:22:20;;;;;;;12.45;10.80;;;;;;;;;;5043854;28;20349;-49
2021/12/02 06:24:54;;;;;;;13.70;12.43;;;;;;;;;;5041091;28;20373;-49
2021/12/02 06:27:21;;;;;;;13.90;12.43;;;;;;;;;;5043678;28;20399;-51
2021/12/02 06:29:48;;;;;;;12.85;10.70;;;;;;;;;;5049781;28;20083;-53
2021/12/02 06:32:15;;;;;;;14.57;12.38;;;;;;;;;;5049360;28;20041;-52
2021/12/02 06:34:41;;;;;;;14.70;13.18;;;;;;;;;;5049192;28;20044;-50
2021/12/02 06:37:08;;;;;;;14.82;13.10;;;;;;;;;;5048977;28;20033;-53
2021/12/02 06:39:35;;;;;;;17.35;14.50;;;;;;;;;;5050852;28;20661;-57
2021/12/02 06:42:02;;;;;;;16.73;15.13;;;;;;;;;;5051309;28;20040;-54
2021/12/02 06:44:29;;;;;;;15.90;14.07;;;;;;;;;;5051717;28;20071;-55
2021/12/02 06:46:58;;;;;;;14.50;13.00;;;;;;;;;;5052026;28;20509;-55
2021/12/02 06:49:27;;;;;;;18.15;14.90;;;;;;;;;;5050714;28;20052;-57
2021/12/02 06:51:53;;;;;;;16.70;14.68;;;;;;;;;;5030476;28;20049;-57
2021/12/02 06:54:20;;;;;;;18.20;16.30;;;;;;;;;;5049233;28;20072;-56
2021/12/02 06:56:51;;;;;;;17.88;15.25;;;;;;;;;;5048618;28;20122;-55
2021/12/02 06:59:19;;;;;;;18.98;17.05;;;;;;;;;;5049497;28;20041;-55
2021/12/02 07:01:46;;;;;;;17.75;15.82;;;;;;;;;;5050140;28;20056;-57
2021/12/02 07:04:13;;;;;;;18.45;16.50;;;;;;;;;;5051327;28;20049;-56
2021/12/02 07:06:40;;;;;;;22.60;16.38;;;;;;;;;;5051681;28;20040;-54
2021/12/02 07:09:07;;;;;;;18.20;16.30;;;;;;;;;;5052158;28;20055;-57
2021/12/02 07:11:34;;;;;;;18.92;15.73;;;;;;;;;;5052440;28;20048;-59
2021/12/02 07:14:11;;;;;;;20.58;15.85;;;;;;;;;;5052077;28;20037;-58
2021/12/02 07:16:39;;;;;;;19.55;17.15;;;;;;;;;;5051700;28;20045;-58
2021/12/02 07:19:07;;;;;;;18.40;16.67;;;;;;;;;;5051588;28;20099;-60
2021/12/02 07:21:37;;;;;;;20.40;18.20;;;;;;;;;;5051446;28;20522;-61
2021/12/02 07:24:05;;;;;;;17.90;16.10;;;;;;;;;;5051962;28;20052;-59
2021/12/02 07:26:40;;;;;;;21.25;17.85;;;;;;;;;;5052303;28;20075;-60
2021/12/02 07:29:09;;;;;;;22.25;19.90;;;;;;;;;;5051624;28;20049;-59
2021/12/02 07:31:38;;;;;;;25.30;19.30;;;;;;;;;;5052465;28;20049;-59
2021/12/02 07:34:06;;;;;;;20.27;17.95;;;;;;;;;;5044058;28;20049;-59
2021/12/02 07:36:34;;;;;;;19.95;17.80;;;;;;;;;;5052372;28;20098;-60
2021/12/02 07:39:07;;;;;;;19.42;17.38;;;;;;;;;;5051971;28;20049;-60
2021/12/02 07:41:36;;;;;;;22.27;18.53;;;;;;;;;;5044248;28;20048;-51
2021/12/02 07:44:03;;;;;;;23.70;20.08;;;;;;;;;;5033673;28;20080;-52
2021/12/02 07:46:31;;;;;;;23.65;21.08;;;;;;;;;;5045810;28;20095;-50
2021/12/02 07:48:58;;;;;;;25.42;20.88;;;;;;;;;;5047935;28;20148;-52
2021/12/02 07:51:30;;;;;;;22.65;20.13;;;;;;;;;;5046380;28;20049;-49
2021/12/02 07:53:58;;;;;;;18.88;16.67;;;;;;;;;;5041967;28;20045;-53
2021/12/02 07:56:25;;;;;;;21.27;18.58;;;;;;;;;;5049663;28;20045;-49
2021/12/02 07:58:52;;;;;;;20.38;18.02;;;;;;;;;;5048892;28;20128;-60
2021/12/02 08:01:19;;;;;;;21.50;18.55;;;;;;;;;;5049342;28;20045;-57
2021/12/02 08:03:47;;;;;;;19.02;16.38;;;;;;;;;;5046824;28;20119;-54
2021/12/02 08:06:15;;;;;;;19.40;16.60;;;;;;;;;;5045162;28;20042;-53
2021/12/02 08:08:45;;;;;;;16.70;15.00;;;;;;;;;;5049555;28;20047;-51
2021/12/02 08:11:13;;;;;;;18.95;17.08;;;;;;;;;;5038891;28;20041;-49
2021/12/02 08:13:40;;;;;;;19.17;17.17;;;;;;;;;;5049113;28;20497;-52
2021/12/02 08:16:07;;;;;;;16.65;14.90;;;;;;;;;;5046050;28;20094;-53
2021/12/02 08:18:35;;;;;;;13.85;12.13;;;;;;;;;;5046108;28;20045;-48
2021/12/02 08:21:02;;;;;;;15.18;13.60;;;;;;;;;;5047108;28;20057;-55
2021/12/02 08:23:29;;;;;;;16.48;14.90;;;;;;;;;;5048600;28;20497;-50
2021/12/02 08:25:56;;;;;;;14.13;12.63;;;;;;;;;;5048042;28;20094;-48
2021/12/02 08:28:23;;;;;;;14.70;13.20;;;;;;;;;;5046573;28;20059;-50
2021/12/02 08:30:50;;;;;;;14.77;13.40;;;;;;;;;;5047126;28;20045;-49
2021/12/02 08:33:18;;;;;;;15.32;13.93;;;;;;;;;;5051220;28;20045;-49
2021/12/02 08:35:47;;;;;;;16.02;14.52;;;;;;;;;;5051992;28;20575;-49
2021/12/02 08:38:16;;;;;;;19.42;16.58;;;;;;;;;;5050006;28;20095;-49
2021/12/02 08:40:44;;;;;;;17.80;15.20;;;;;;;;;;5050818;28;20044;-52
2021/12/02 08:43:12;;;;;;;18.27;16.38;;;;;;;;;;5051391;28;20059;-51
2021/12/02 08:45:41;;;;;;;17.55;15.93;;;;;;;;;;5052858;28;20091;-50
2021/12/02 08:48:09;;;;;;;17.58;15.88;;;;;;;;;;5051686;28;20132;-53
2021/12/02 08:50:37;;;;;;;16.52;14.93;;;;;;;;;;5050023;28;20052;-51
2021/12/02 08:53:05;;;;;;;16.92;15.23;;;;;;;;;;5050184;28;20107;-54
2021/12/02 08:55:33;;;;;;;19.08;16.05;;;;;;;;;;5051690;28;20033;-52
2021/12/02 08:58:00;;;;;;;21.05;15.57;;;;;;;;;;5050397;28;20556;-52
2021/12/02 09:00:33;;;;;;;21.33;17.05;;;;;;;;;;5048276;28;20052;-55
2021/12/02 09:03:02;;;;;;;17.55;15.70;;;;;;;;;;5049284;28;20068;-55
2021/12/02 09:05:30;;;;;;;16.63;14.77;;;;;;;;;;5047925;28;20049;-55
2021/12/02 09:07:57;;;;;;;18.58;16.58;;;;;;;;;;5050401;28;20356;-50
2021/12/02 09:10:25;;;;;;;19.30;17.30;;;;;;;;;;5042519;28;20040;-54
2021/12/02 09:12:53;;;;;;;18.35;16.48;;;;;;;;;;5046299;28;20048;-56
2021/12/02 09:15:20;;;;;;;19.23;17.23;;;;;;;;;;5047926;28;20029;-51
2021/12/02 09:17:51;;;;;;;18.95;16.98;;;;;;;;;;5052811;28;20055;-52
2021/12/02 09:20:19;;;;;;;19.20;17.15;;;;;;;;;;5052720;28;20060;-50
2021/12/02 09:22:46;;;;;;;18.63;16.77;;;;;;;;;;5053762;28;20044;-51
2021/12/02 09:25:16;;;;;;;16.98;15.27;;;;;;;;;;5053563;28;20041;-54
2021/12/02 09:27:46;;;;;;;18.10;16.30;;;;;;;;;;5053967;28;20048;-55
2021/12/02 09:30:14;;;;;;;19.85;17.73;;;;;;;;;;5053467;28;20055;-58
2021/12/02 09:32:41;;;;;;;18.65;16.67;;;;;;;;;;5053277;28;20041;-58
2021/12/02 09:35:09;;;;;;;18.88;17.08;;;;;;;;;;5052803;28;20045;-51
2021/12/02 09:37:37;;;;;;;17.58;15.70;;;;;;;;;;5053930;28;20084;-56
2021/12/02 09:40:06;;;;;;;18.88;15.93;;;;;;;;;;5052409;28;20048;-55
2021/12/02 09:42:33;;;;;;;17.77;15.70;;;;;;;;;;5052866;28;20821;-53
2021/12/02 09:45:00;;;;;;;18.55;16.45;;;;;;;;;;5051827;28;20045;-55
2021/12/02 09:47:29;;;;;;;18.40;16.45;;;;;;;;;;5053306;28;20119;-56
2021/12/02 09:50:01;;;;;;;26.02;23.33;;;;;;;;;;5053240;28;20049;-52
2021/12/02 09:52:38;;;;;;;23.58;21.08;;;;;;;;;;5052702;28;20041;-50
2021/12/02 09:55:37;;;;;;;24.10;21.70;;;;;;;;;;5052886;28;20053;-55
2021/12/02 09:58:07;;;;;;;21.08;18.67;;;;;;;;;;5050214;28;20045;-53
2021/12/02 10:00:43;;;;;;;18.48;16.52;;;;;;;;;;5052219;28;20761;-57
2021/12/02 10:03:30;;;;;;;19.05;16.50;;;;;;;;;;5051688;28;20067;-50
2021/12/02 10:06:07;;;;;;;20.08;17.55;;;;;;;;;;5050797;28;20041;-55
2021/12/02 10:08:47;;;;;;;18.95;16.95;;;;;;;;;;5052479;28;20049;-54
2021/12/02 10:11:36;;;;;;;18.98;16.98;;;;;;;;;;5052201;28;20040;-57
2021/12/02 10:14:20;;;;;;;18.60;16.30;;;;;;;;;;5046859;28;20052;-52
2021/12/02 10:16:50;;;;;;;19.63;17.55;;;;;;;;;;5053074;28;20037;-49
2021/12/02 10:19:28;;;;;;;21.65;19.35;;;;;;;;;;5052685;28;20056;-58
2021/12/02 10:22:08;;;;;;;28.40;19.50;;;;;;;;;;5052072;28;20121;-56
2021/12/02 10:24:42;;;;;;;21.83;17.98;;;;;;;;;;5052261;28;20049;-51
2021/12/02 10:27:10;;;;;;;21.65;17.75;;;;;;;;;;5052609;28;20167;-56
2021/12/02 10:29:47;;;;;;;20.88;17.60;;;;;;;;;;5052634;28;20045;-54
2021/12/02 10:32:25;;;;;;;17.33;15.63;;;;;;;;;;5052415;28;20041;-54
2021/12/02 10:35:10;;;;;;;17.85;15.98;;;;;;;;;;5051536;28;20041;-52
2021/12/02 10:37:40;;;;;;;20.55;18.25;;;;;;;;;;5052536;28;20056;-55
2021/12/02 10:40:15;;;;;;;18.70;16.88;;;;;;;;;;5051133;28;20048;-58
2021/12/02 10:42:43;;;;;;;;;;;;;;;;;;5051942;28;20040;-55
2021/12/02 10:45:23;;;;;;;18.63;15.75;;;;;;;;;;5052511;28;19982;-50
2021/12/02 10:47:51;;;;;;;19.42;15.95;;;;;;;;;;5052150;28;20036;-58
2021/12/02 10:50:19;;;;;;;20.20;18.02;;;;;;;;;;5051593;28;20495;-48
2021/12/02 10:52:46;;;;;;;19.77;17.73;;;;;;;;;;5051776;28;20041;-50
2021/12/02 10:55:16;;;;;;;24.77;19.02;;;;;;;;;;5052680;28;20048;-49
2021/12/02 10:57:56;;;;;;;25.98;22.65;;;;;;;;;;5052019;28;20098;-49
2021/12/02 11:00:28;;;;;;;24.92;22.33;;;;;;;;;;5034100;28;20057;-49
2021/12/02 11:02:58;;;;;;;28.30;23.58;;;;;;;;;;5050810;28;20491;-48
2021/12/02 11:05:31;;;;;;;27.95;24.90;;;;;;;;;;5051938;28;20052;-50
2021/12/02 11:08:07;;;;;;;27.15;24.05;;;;;;;;;;5051627;28;20033;-50
2021/12/02 11:10:41;;;;;;;30.30;26.38;;;;;;;;;;5051971;28;20063;-53
2021/12/02 11:13:10;;;;;;;36.17;27.25;;;;;;;;;;5051012;28;20037;-54
2021/12/02 11:15:39;;;;;;;29.45;26.38;;;;;;;;;;5051944;28;20041;-52
2021/12/02 11:18:09;;;;;;;40.80;27.80;;;;;;;;;;5051534;28;20119;-56
2021/12/02 11:20:41;;;;;;;30.50;25.80;;;;;;;;;;5051233;28;20491;-55
2021/12/02 11:23:11;;;;;;;32.05;27.50;;;;;;;;;;5051530;28;20385;-51
2021/12/02 11:25:58;;;;;;;30.83;26.30;;;;;;;;;;5051299;28;20045;-55
2021/12/02 11:28:28;;;;;;;28.35;25.30;;;;;;;;;;5044097;28;20053;-59
2021/12/02 11:30:56;;;;;;;29.27;26.10;;;;;;;;;;5051341;28;20041;-56
2021/12/02 11:33:35;;;;;;;27.77;23.73;;;;;;;;;;5051777;28;20072;-55
2021/12/02 11:36:05;;;;;;;33.13;26.02;;;;;;;;;;5050950;28;20131;-53
2021/12/02 11:38:33;;;;;;;34.78;28.65;;;;;;;;;;5051844;28;20817;-56
2021/12/02 11:41:03;;;;;;;36.28;29.45;;;;;;;;;;5051311;28;20056;-55
2021/12/02 11:43:32;;;;;;;39.80;30.83;;;;;;;;;;5050897;28;20041;-55
2021/12/02 11:46:00;;;;;;;36.00;30.58;;;;;;;;;;5050443;28;20133;-54
2021/12/02 11:48:37;;;;;;;39.35;31.40;;;;;;;;;;5051391;28;20056;-54
2021/12/02 11:51:06;;;;;;;38.60;30.38;;;;;;;;;;5051842;28;20042;-57
2021/12/02 11:53:33;;;;;;;38.75;32.78;;;;;;;;;;5051279;28;20120;-55
2021/12/02 11:56:03;;;;;;;44.63;34.97;;;;;;;;;;5051746;28;20044;-52
2021/12/02 11:58:30;;;;;;;44.35;34.50;;;;;;;;;;5049335;28;20038;-57
2021/12/02 12:00:58;;;;;;;39.65;31.60;;;;;;;;;;5050430;28;20041;-55
2021/12/02 12:03:29;;;;;;;42.42;31.38;;;;;;;;;;5050300;28;20123;-57
2021/12/02 12:06:22;;;;;;;41.65;31.52;;;;;;;;;;5046450;28;20057;-57
2021/12/02 12:08:51;;;;;;;39.45;32.00;;;;;;;;;;5048543;28;20123;-55
2021/12/02 12:11:18;;;;;;;40.25;33.47;;;;;;;;;;5054412;28;20395;-55
2021/12/02 12:13:47;;;;;;;44.42;32.13;;;;;;;;;;5053566;28;20037;-51
2021/12/02 12:16:49;;;;;;;42.47;32.13;;;;;;;;;;5053232;28;20455;-54
2021/12/02 12:19:32;;;;;;;40.08;30.17;;;;;;;;;;5053028;28;20135;-52
2021/12/02 12:22:03;;;;;;;40.92;29.65;;;;;;;;;;5053921;28;20037;-55
2021/12/02 12:24:40;;;;;;;38.83;28.58;;;;;;;;;;5054065;28;20032;-53
2021/12/02 12:27:11;;;;;;;45.83;33.63;;;;;;;;;;5050753;28;20067;-53
2021/12/02 12:29:38;;;;;;;44.63;33.60;;;;;;;;;;5055120;28;20059;-54
2021/12/02 12:32:22;;;;;;;48.78;36.25;;;;;;;;;;5053280;28;20072;-55
2021/12/02 12:34:55;;;;;;;44.33;32.33;;;;;;;;;;5047269;28;20041;-54
2021/12/02 12:40:17;;;;;;;50.08;31.88;;;;;;;;;;5061023;28;20044;-55
2021/12/02 12:43:02;;;;;;;39.22;30.52;;;;;;;;;;5055985;28;20050;-57
2021/12/02 12:45:38;;;;;;;43.13;32.17;;;;;;;;;;5052741;28;20037;-52
2021/12/02 12:48:27;;;;;;;41.78;31.65;;;;;;;;;;5053365;28;20041;-50
2021/12/02 12:51:21;;;;;;;37.42;30.67;;;;;;;;;;5051971;28;20060;-51
2021/12/02 12:53:50;;;;;;;39.05;32.10;;;;;;;;;;5051889;28;20052;-53
2021/12/02 12:56:38;;;;;;;36.00;30.40;;;;;;;;;;5053224;28;20046;-52
2021/12/02 12:59:11;;;;;;;44.60;32.42;;;;;;;;;;5053060;28;20059;-52
2021/12/02 13:01:40;;;;;;;44.80;31.95;;;;;;;;;;5054563;28;20168;-56
2021/12/02 13:04:10;;;;;;;40.90;30.77;;;;;;;;;;5056411;28;20122;-53
2021/12/02 13:07:03;;;;;;;38.67;27.55;;;;;;;;;;5055646;28;20037;-52
2021/12/02 13:09:36;;;;;;;38.92;27.48;;;;;;;;;;5057352;28;20053;-53
2021/12/02 13:12:04;;;;;;;37.00;27.10;;;;;;;;;;5052098;28;20415;-50
2021/12/02 13:14:33;;;;;;;37.28;25.17;;;;;;;;;;5052173;28;20079;-51
2021/12/02 13:17:38;;;;;;;32.05;23.50;;;;;;;;;;5029983;28;20032;-51
2021/12/02 13:20:39;;;;;;;30.88;21.50;;;;;;;;;;5046010;28;20098;-52
2021/12/02 13:23:12;;;;;;;39.45;20.02;;;;;;;;;;5048461;28;20049;-54
2021/12/02 13:25:51;;;;;;;30.58;22.33;;;;;;;;;;5051733;28;20049;-52
2021/12/02 13:28:23;;;;;;;32.00;21.73;;;;;;;;;;5031652;28;20131;-57
2021/12/02 13:30:56;;;;;;;34.07;23.73;;;;;;;;;;5056656;28;20052;-58
2021/12/02 13:33:38;;;;;;;30.25;22.80;;;;;;;;;;5057297;28;20041;-58
2021/12/02 13:36:06;;;;;;;26.58;18.50;;;;;;;;;;5051140;28;20141;-56
2021/12/02 13:38:33;;;;;;;23.52;18.17;;;;;;;;;;5055707;28;20383;-55
2021/12/02 13:41:14;;;;;;;24.13;18.20;;;;;;;;;;5057961;28;20044;-57
2021/12/02 13:44:12;;;;;;;20.02;17.02;;;;;;;;;;5046335;28;20053;-57
2021/12/02 13:46:42;;;;;;;28.13;20.48;;;;;;;;;;4948177;28;20038;-58
2021/12/02 13:49:15;;;;;;;28.38;19.63;;;;;;;;;;5030612;28;20488;-56
2021/12/02 13:54:53;;;;;;;30.70;21.02;;;;;;;;;;5040740;28;20052;-58
2021/12/02 13:57:47;;;;;;;27.73;19.58;;;;;;;;;;5038269;28;20488;-57
2021/12/02 14:00:28;;;;;;;27.45;19.05;;;;;;;;;;5027080;28;20050;-56
2021/12/02 14:03:09;;;;;;;34.30;21.30;;;;;;;;;;5036742;28;20404;-53
2021/12/02 14:05:42;;;;;;;29.25;22.02;;;;;;;;;;5040762;28;20041;-50
2021/12/02 14:08:13;;;;;;;31.77;21.60;;;;;;;;;;5037206;28;20419;-56
2021/12/02 14:10:40;;;;;;;30.73;23.45;;;;;;;;;;5033849;28;20059;-53
2021/12/02 14:13:16;;;;;;;32.92;20.23;;;;;;;;;;5033394;28;20042;-54
2021/12/02 14:15:50;;;;;;;31.15;22.15;;;;;;;;;;5033309;28;20879;-57
2021/12/02 14:18:22;;;;;;;31.98;21.25;;;;;;;;;;5039283;28;20099;-55
2021/12/02 14:20:53;;;;;;;32.65;21.58;;;;;;;;;;5034497;28;20415;-50
2021/12/02 14:23:24;;;;;;;36.15;23.05;;;;;;;;;;5035681;28;20120;-51
2021/12/02 14:25:56;;;;;;;34.00;23.70;;;;;;;;;;5020205;28;20045;-55
2021/12/02 14:28:28;;;;;;;32.80;23.77;;;;;;;;;;5033105;28;20070;-53
2021/12/02 14:30:56;;;;;;;28.27;19.52;;;;;;;;;;5028993;28;20055;-50
2021/12/02 14:33:27;;;;;;;28.60;21.08;;;;;;;;;;5031602;28;20604;-53
2021/12/02 14:36:19;;;;;;;31.13;22.65;;;;;;;;;;5040447;28;20491;-53
2021/12/02 14:38:48;;;;;;;31.73;20.35;;;;;;;;;;5042331;28;20052;-54
2021/12/02 14:41:27;;;;;;;27.05;18.88;;;;;;;;;;5030751;28;20052;-53
2021/12/02 14:44:02;;;;;;;29.13;21.08;;;;;;;;;;5029942;28;20045;-53
2021/12/02 14:46:33;;;;;;;26.77;18.40;;;;;;;;;;5030514;28;20041;-51
2021/12/02 14:49:02;;;;;;;26.80;18.70;;;;;;;;;;5031526;28;20041;-51
2021/12/02 14:51:41;;;;;;;24.85;19.17;;;;;;;;;;5032437;28;20492;-54
2021/12/02 14:54:08;;;;;;;24.48;17.33;;;;;;;;;;5027049;28;20396;-56
2021/12/02 14:56:36;;;;;;;21.98;15.82;;;;;;;;;;5033101;28;20037;-51
2021/12/02 14:59:14;;;;;;;21.27;15.02;;;;;;;;;;5040714;28;20042;-52
2021/12/02 15:02:09;;;;;;;20.95;14.52;;;;;;;;;;5024677;28;20046;-51
2021/12/02 15:04:50;;;;;;;16.02;13.52;;;;;;;;;;5031233;28;20053;-51
2021/12/02 15:07:24;;;;;;;17.08;12.50;;;;;;;;;;5040368;28;20507;-51
2021/12/02 15:09:59;;;;;;;17.02;12.02;;;;;;;;;;5035387;28;20057;-50
2021/12/02 15:12:36;;;;;;;15.07;11.88;;;;;;;;;;5025663;28;20099;-52